Time;durP1;ratioP1;P1;durP2;ratioP2;P2;SDS_P1;SDS_P2;PMS_P1;PMS_P2;Temp;Humidity;BMP_temperature;BMP_pressure;BME280_temperature;BME280_humidity;BME280_pressure;Samples;Min_cycle;Max_cycle;Signal;HPM_P1;HPM_P2
2022/03/11 00:00:49;;;;;;;10.60;7.00;;;;;;;9.43;30.50;97737.16;5031326;28;20187;-68
2022/03/11 00:03:15;;;;;;;9.17;6.27;;;;;;;9.43;30.60;97734.53;5031311;28;20293;-68
2022/03/11 00:05:41;;;;;;;12.33;7.40;;;;;;;9.41;30.34;97728.63;5030922;28;20183;-68
2022/03/11 00:08:07;;;;;;;11.30;6.97;;;;;;;9.44;30.22;97729.16;5031319;28;21047;-68
2022/03/11 00:10:33;;;;;;;10.87;7.27;;;;;;;9.43;30.32;97724.09;5030878;28;20528;-69
2022/03/11 00:12:58;;;;;;;10.07;6.97;;;;;;;9.41;30.60;97718.97;5031118;28;20215;-68
2022/03/11 00:15:24;;;;;;;9.50;6.97;;;;;;;9.37;29.89;97726.25;5030602;28;20187;-68
2022/03/11 00:17:50;;;;;;;10.73;7.07;;;;;;;9.10;30.76;97723.38;5031268;28;20187;-68
2022/03/11 00:20:19;;;;;;;9.07;6.83;;;;;;;9.09;31.09;97721.72;5013285;28;20449;-68
2022/03/11 00:22:48;;;;;;;11.40;7.83;;;;;;;9.07;30.97;97719.25;5031057;28;20460;-67
2022/03/11 00:25:14;;;;;;;10.13;6.87;;;;;;;9.06;31.05;97715.81;5030278;28;20433;-67
2022/03/11 00:27:39;;;;;;;13.67;6.50;;;;;;;9.06;31.17;97712.34;5013546;28;20926;-67
2022/03/11 00:30:05;;;;;;;12.63;7.20;;;;;;;9.04;31.50;97712.50;5031365;28;20191;-71
2022/03/11 00:32:31;;;;;;;10.20;7.03;;;;;;;8.96;31.28;97714.91;5028807;28;20197;-69
2022/03/11 00:34:56;;;;;;;11.13;7.30;;;;;;;8.99;31.69;97712.03;5033804;28;20422;-67
2022/03/11 00:37:22;;;;;;;15.10;6.80;;;;;;;9.01;31.40;97720.59;5033730;28;20193;-69
2022/03/11 00:39:47;;;;;;;12.90;6.80;;;;;;;8.92;31.62;97708.31;5033843;28;20551;-68
2022/03/11 00:42:13;;;;;;;10.93;7.20;;;;;;;8.95;31.45;97713.25;5033705;28;20202;-68
2022/03/11 00:44:39;;;;;;;11.87;7.80;;;;;;;8.94;31.56;97719.47;5033707;28;20192;-68
2022/03/11 00:47:06;;;;;;;10.90;7.13;;;;;;;8.68;32.25;97708.56;5033978;28;20278;-68
2022/03/11 00:49:31;;;;;;;12.00;7.90;;;;;;;8.73;31.93;97712.44;5033909;28;20513;-68
2022/03/11 00:51:57;;;;;;;11.70;7.40;;;;;;;8.66;32.35;97707.84;5033559;28;21033;-68
2022/03/11 00:54:22;;;;;;;10.07;7.20;;;;;;;8.57;32.10;97712.06;5037184;28;20171;-68
2022/03/11 00:56:48;;;;;;;10.13;7.30;;;;;;;8.63;32.28;97708.94;5032786;28;20196;-68
2022/03/11 00:59:13;;;;;;;13.30;7.70;;;;;;;8.71;32.83;97711.75;5033474;28;20197;-68
2022/03/11 01:01:39;;;;;;;12.07;7.97;;;;;;;8.75;32.41;97709.72;5033502;28;20610;-69
2022/03/11 01:04:04;;;;;;;9.80;7.20;;;;;;;8.81;32.53;97713.59;5033757;28;20215;-68
2022/03/11 01:06:30;;;;;;;12.10;7.57;;;;;;;8.77;32.33;97707.78;5033397;28;20191;-67
2022/03/11 01:08:55;;;;;;;9.13;7.37;;;;;;;8.70;32.77;97711.88;5033070;28;20186;-68
2022/03/11 01:11:20;;;;;;;12.60;8.10;;;;;;;8.64;32.72;97708.00;5033367;28;20653;-68
2022/03/11 01:13:46;;;;;;;15.77;9.20;;;;;;;8.72;33.26;97712.59;5016032;28;20231;-68
2022/03/11 01:16:11;;;;;;;12.27;8.53;;;;;;;8.65;33.44;97696.59;4982604;28;20187;-68
2022/03/11 01:18:37;;;;;;;13.27;9.10;;;;;;;8.70;33.45;97707.47;5015466;28;20211;-69
2022/03/11 01:21:03;;;;;;;16.20;10.67;;;;;;;8.74;33.47;97708.06;5015774;28;20190;-68
2022/03/11 01:23:29;;;;;;;12.93;9.60;;;;;;;8.76;33.83;97706.97;4982500;28;20265;-68
2022/03/11 01:25:54;;;;;;;15.07;10.23;;;;;;;8.79;33.49;97702.44;4998019;28;20812;-68
2022/03/11 01:28:20;;;;;;;16.03;9.67;;;;;;;8.74;33.49;97702.84;4950652;28;20209;-68
2022/03/11 01:30:45;;;;;;;15.40;9.97;;;;;;;8.64;33.98;97702.78;5015383;28;20182;-68
2022/03/11 01:33:11;;;;;;;14.13;9.30;;;;;;;8.49;34.18;97697.03;5032393;28;20673;-68
2022/03/11 01:35:36;;;;;;;18.23;9.63;;;;;;;8.48;33.93;97697.16;5032907;28;20205;-68
2022/03/11 01:38:02;;;;;;;15.97;11.07;;;;;;;8.49;33.88;97698.81;5015432;28;20720;-68
2022/03/11 01:40:27;;;;;;;20.50;10.73;;;;;;;8.55;34.50;97708.75;5032843;28;20192;-68
2022/03/11 01:42:53;;;;;;;12.93;9.43;;;;;;;8.54;34.64;97701.88;5032854;28;20234;-68
2022/03/11 01:45:18;;;;;;;17.73;10.40;;;;;;;8.55;34.35;97700.94;5031814;28;20198;-68
2022/03/11 01:47:44;;;;;;;16.70;11.07;;;;;;;8.38;34.70;97697.88;5032735;28;20312;-68
2022/03/11 01:50:10;;;;;;;16.03;11.80;;;;;;;8.32;35.22;97703.59;5032823;28;20203;-68
2022/03/11 01:52:37;;;;;;;15.63;10.90;;;;;;;8.36;35.12;97699.78;5029881;28;20209;-68
2022/03/11 01:55:04;;;;;;;17.10;11.40;;;;;;;8.18;35.58;97691.69;4997903;28;20947;-68
2022/03/11 01:57:33;;;;;;;20.73;11.90;;;;;;;8.25;35.73;97698.06;4982268;28;20454;-68
2022/03/11 01:59:59;;;;;;;17.13;11.13;;;;;;;8.20;35.89;97689.78;4998680;28;20422;-68
2022/03/11 02:02:24;;;;;;;15.47;10.87;;;;;;;8.24;35.71;97682.50;4998242;28;20464;-68
2022/03/11 02:04:50;;;;;;;18.00;11.20;;;;;;;8.31;36.04;97694.13;5031604;28;20201;-68
2022/03/11 02:07:15;;;;;;;18.10;12.40;;;;;;;8.28;36.18;97692.59;5032415;28;20189;-67
2022/03/11 02:09:41;;;;;;;19.03;12.90;;;;;;;8.28;35.65;97691.78;5014422;28;20227;-68
2022/03/11 02:12:07;;;;;;;18.70;12.70;;;;;;;8.23;35.86;97688.69;5031975;28;20212;-68
2022/03/11 02:14:33;;;;;;;25.13;12.53;;;;;;;8.14;36.51;97688.50;5032221;28;20276;-68
2022/03/11 02:16:58;;;;;;;20.13;12.70;;;;;;;8.13;36.49;97684.22;5032025;28;20202;-68
2022/03/11 02:19:25;;;;;;;20.77;12.80;;;;;;;8.14;36.07;97679.81;5032305;28;20512;-68
2022/03/11 02:21:52;;;;;;;19.20;12.50;;;;;;;8.18;36.47;97685.66;5031560;28;20854;-68
2022/03/11 02:24:18;;;;;;;21.63;13.87;;;;;;;8.15;36.33;97684.09;5031531;28;20716;-68
2022/03/11 02:26:43;;;;;;;21.20;12.50;;;;;;;8.17;36.73;97673.53;5031205;28;20433;-68
2022/03/11 02:29:09;;;;;;;21.60;13.10;;;;;;;8.15;36.40;97687.53;5031812;28;20187;-68
2022/03/11 02:31:34;;;;;;;20.90;12.63;;;;;;;8.16;36.86;97677.91;5035475;28;20216;-68
2022/03/11 02:34:02;;;;;;;19.93;12.70;;;;;;;8.06;36.61;97677.88;5032065;28;20190;-67
2022/03/11 02:36:28;;;;;;;23.97;13.40;;;;;;;8.02;36.51;97681.66;5031383;28;20718;-67
2022/03/11 02:38:54;;;;;;;18.23;12.73;;;;;;;7.97;36.52;97673.38;5032114;28;20418;-68
2022/03/11 02:41:20;;;;;;;18.57;12.73;;;;;;;7.95;36.92;97681.34;5030759;28;20205;-68
2022/03/11 02:43:45;;;;;;;17.60;12.50;;;;;;;7.88;37.23;97679.34;5031699;28;20263;-68
2022/03/11 02:46:13;;;;;;;20.57;13.17;;;;;;;7.83;37.51;97679.72;5031126;28;20190;-68
2022/03/11 02:48:39;;;;;;;22.70;13.10;;;;;;;7.82;37.07;97681.47;5031391;28;20237;-68
2022/03/11 02:51:04;;;;;;;20.27;13.10;;;;;;;7.84;37.58;97669.13;5031650;28;20451;-68
2022/03/11 02:53:30;;;;;;;21.30;13.53;;;;;;;7.79;37.38;97676.53;5031546;28;20268;-68
2022/03/11 02:55:57;;;;;;;21.80;12.93;;;;;;;7.72;37.89;97667.50;5013785;28;20274;-68
2022/03/11 02:58:22;;;;;;;25.00;14.93;;;;;;;7.64;37.83;97672.53;5031026;28;20717;-68
2022/03/11 03:00:48;;;;;;;21.90;14.30;;;;;;;7.67;38.26;97667.06;5030796;28;20443;-68
2022/03/11 03:03:13;;;;;;;25.47;14.47;;;;;;;7.77;38.10;97678.44;5031109;28;20227;-68
2022/03/11 03:05:39;;;;;;;23.23;13.83;;;;;;;7.72;37.65;97675.34;5030974;28;20180;-67
2022/03/11 03:08:04;;;;;;;28.57;14.13;;;;;;;7.61;37.77;97668.38;5031410;28;20193;-67
2022/03/11 03:10:30;;;;;;;26.93;15.00;;;;;;;7.48;38.17;97665.91;5031133;28;20359;-67
2022/03/11 03:12:55;;;;;;;23.10;15.17;;;;;;;7.32;38.84;97658.47;5031196;28;20220;-68
2022/03/11 03:15:21;;;;;;;20.77;14.10;;;;;;;7.51;38.21;97655.25;5012692;28;20191;-68
2022/03/11 03:17:46;;;;;;;26.30;14.60;;;;;;;7.58;38.54;97657.34;5030797;28;20279;-68
2022/03/11 03:20:12;;;;;;;22.90;15.30;;;;;;;7.61;38.23;97659.72;5031120;28;20658;-68
2022/03/11 03:22:37;;;;;;;23.63;15.80;;;;;;;7.48;38.04;97667.69;5031428;28;20590;-68
2022/03/11 03:25:04;;;;;;;23.20;15.40;;;;;;;7.52;38.39;97669.09;5031067;28;20565;-68
2022/03/11 03:27:30;;;;;;;22.87;15.30;;;;;;;7.53;38.01;97663.78;5031329;28;20190;-68
2022/03/11 03:29:55;;;;;;;22.40;15.13;;;;;;;7.52;38.40;97667.34;5031324;28;20459;-68
2022/03/11 03:32:21;;;;;;;24.27;16.57;;;;;;;7.56;38.53;97660.09;5033863;28;20214;-68
2022/03/11 03:34:47;;;;;;;30.43;18.03;;;;;;;7.55;38.00;97657.63;5030946;28;20185;-68
2022/03/11 03:37:12;;;;;;;25.67;16.77;;;;;;;7.52;38.13;97663.88;5033452;28;20211;-68
2022/03/11 03:39:39;;;;;;;25.50;16.40;;;;;;;7.52;38.18;97663.88;5031884;28;20196;-67
2022/03/11 03:42:05;;;;;;;24.63;16.30;;;;;;;7.48;38.76;97668.53;5032934;28;20253;-69
2022/03/11 03:44:31;;;;;;;23.47;16.83;;;;;;;7.46;38.57;97661.78;5035307;28;20447;-67
2022/03/11 03:46:57;;;;;;;26.10;16.33;;;;;;;7.47;38.52;97655.63;5032054;28;21086;-67
2022/03/11 03:49:22;;;;;;;23.40;15.57;;;;;;;7.44;38.31;97656.66;5002166;28;20275;-69
2022/03/11 03:51:48;;;;;;;27.87;18.00;;;;;;;7.44;38.65;97646.22;5016597;28;20604;-67
2022/03/11 03:54:14;;;;;;;26.20;17.07;;;;;;;7.41;38.48;97650.88;5031681;28;20185;-68
2022/03/11 03:56:41;;;;;;;23.60;16.23;;;;;;;7.48;38.87;97654.66;5031421;28;20276;-67
2022/03/11 03:59:07;;;;;;;25.67;15.57;;;;;;;7.36;38.92;97653.84;5030822;28;20195;-69
2022/03/11 04:01:37;;;;;;;22.87;15.90;;;;;;;7.33;39.03;97654.06;5022384;28;20447;-68
2022/03/11 04:04:03;;;;;;;23.07;15.37;;;;;;;7.31;38.74;97651.59;4996390;28;20845;-68
2022/03/11 04:06:30;;;;;;;25.43;16.10;;;;;;;7.20;38.75;97646.41;5012272;28;20474;-68
2022/03/11 04:08:59;;;;;;;24.60;17.03;;;;;;;7.23;38.96;97651.38;5015517;28;20426;-67
2022/03/11 04:11:25;;;;;;;24.23;17.10;;;;;;;7.17;39.09;97649.25;5016992;28;20447;-68
2022/03/11 04:13:51;;;;;;;27.90;16.80;;;;;;;7.16;39.26;97653.63;5016244;28;20958;-69
2022/03/11 04:16:18;;;;;;;28.93;17.97;;;;;;;7.20;39.13;97647.22;5034325;28;20968;-68
2022/03/11 04:18:44;;;;;;;32.87;19.97;;;;;;;7.06;39.39;97650.06;5034504;28;20446;-69
2022/03/11 04:21:09;;;;;;;28.80;18.20;;;;;;;6.97;39.36;97648.19;5034046;28;20420;-67
2022/03/11 04:23:35;;;;;;;26.67;17.93;;;;;;;7.06;39.26;97647.47;5034562;28;20451;-68
2022/03/11 04:26:01;;;;;;;29.87;17.50;;;;;;;7.14;39.09;97650.31;5033326;28;20218;-66
2022/03/11 04:28:27;;;;;;;30.10;18.00;;;;;;;7.16;39.12;97648.44;5033811;28;20201;-67
2022/03/11 04:30:52;;;;;;;29.10;17.30;;;;;;;7.19;38.80;97653.38;5034291;28;20435;-69
2022/03/11 04:33:18;;;;;;;28.07;17.23;;;;;;;7.18;38.98;97648.28;5034285;28;20640;-68
2022/03/11 04:35:43;;;;;;;26.50;17.50;;;;;;;7.21;38.93;97648.88;4999965;28;20275;-67
2022/03/11 04:38:09;;;;;;;26.83;18.50;;;;;;;7.15;38.79;97651.97;5033996;28;20229;-69
2022/03/11 04:40:35;;;;;;;32.73;18.70;;;;;;;7.13;38.90;97659.09;5033746;28;20185;-67
2022/03/11 04:43:01;;;;;;;28.20;17.87;;;;;;;7.07;39.08;97660.38;5033665;28;20297;-67
2022/03/11 04:45:27;;;;;;;26.40;17.87;;;;;;;7.05;39.06;97664.06;5033316;28;20193;-68
2022/03/11 04:47:53;;;;;;;31.47;17.23;;;;;;;7.01;39.36;97654.81;5034079;28;20437;-68
2022/03/11 04:50:19;;;;;;;32.33;20.00;;;;;;;6.99;39.18;97652.34;5022260;28;21269;-66
2022/03/11 04:52:44;;;;;;;26.90;17.87;;;;;;;6.98;39.15;97650.69;5033164;28;20683;-68
2022/03/11 04:55:10;;;;;;;33.53;18.40;;;;;;;7.03;39.10;97652.94;5032568;28;20185;-67
2022/03/11 04:57:35;;;;;;;31.40;17.60;;;;;;;6.94;38.91;97654.47;5033077;28;20187;-67
2022/03/11 05:00:03;;;;;;;27.50;17.37;;;;;;;6.86;39.77;97660.25;5032668;28;20191;-67
2022/03/11 05:02:29;;;;;;;29.33;17.03;;;;;;;6.85;39.32;97661.22;5036536;28;20210;-68
2022/03/11 05:04:55;;;;;;;26.83;17.27;;;;;;;6.86;39.48;97660.25;5037956;28;20429;-68
2022/03/11 05:07:20;;;;;;;32.47;18.67;;;;;;;6.88;39.21;97654.94;5032851;28;20795;-68
2022/03/11 05:09:46;;;;;;;31.30;18.70;;;;;;;6.84;39.49;97656.94;5033276;28;20187;-68
2022/03/11 05:12:11;;;;;;;26.20;17.67;;;;;;;6.83;39.01;97652.69;5034250;28;20202;-68
2022/03/11 05:14:38;;;;;;;28.33;17.47;;;;;;;6.58;39.58;97649.34;5032489;28;20191;-68
2022/03/11 05:17:03;;;;;;;35.83;19.00;;;;;;;6.69;39.13;97640.72;5032977;28;20191;-68
2022/03/11 05:19:29;;;;;;;27.43;17.97;;;;;;;6.69;39.41;97653.75;5032971;28;20439;-68
2022/03/11 05:21:54;;;;;;;31.00;18.77;;;;;;;6.79;39.01;97655.63;5032886;28;20852;-68
2022/03/11 05:24:20;;;;;;;31.07;17.50;;;;;;;6.68;38.57;97659.09;5032927;28;20218;-68
2022/03/11 05:26:45;;;;;;;32.87;17.87;;;;;;;6.64;39.25;97662.84;5034193;28;20186;-69
2022/03/11 05:29:10;;;;;;;37.90;19.10;;;;;;;6.58;39.46;97664.97;5039316;28;20194;-68
2022/03/11 05:31:36;;;;;;;28.40;17.77;;;;;;;6.52;39.78;97665.44;5039838;28;20584;-67
2022/03/11 05:34:01;;;;;;;31.07;18.97;;;;;;;6.53;39.87;97667.09;5035679;28;20195;-69
2022/03/11 05:36:27;;;;;;;31.13;19.80;;;;;;;6.58;39.85;97664.16;5034418;28;20203;-68
2022/03/11 05:38:52;;;;;;;30.87;17.90;;;;;;;6.56;39.74;97666.03;5035567;28;20273;-68
2022/03/11 05:41:18;;;;;;;31.33;18.87;;;;;;;6.58;39.35;97664.16;5035575;28;20586;-68
2022/03/11 05:43:44;;;;;;;33.30;20.80;;;;;;;6.49;39.73;97672.66;5036153;28;20207;-68
2022/03/11 05:46:09;;;;;;;29.90;19.47;;;;;;;6.52;39.73;97668.03;5014583;28;20190;-68
2022/03/11 05:48:35;;;;;;;41.20;26.23;;;;;;;6.23;40.34;97665.03;5032919;28;20657;-67
2022/03/11 05:51:00;;;;;;;36.60;22.63;;;;;;;6.35;40.30;97671.06;5031336;28;20688;-69
2022/03/11 05:53:26;;;;;;;34.67;22.30;;;;;;;6.33;40.01;97672.94;5032603;28;20237;-68
2022/03/11 05:55:52;;;;;;;33.77;21.07;;;;;;;6.06;40.61;97663.63;5014409;28;20217;-68
2022/03/11 05:58:17;;;;;;;36.60;22.17;;;;;;;6.17;40.19;97665.47;5032118;28;20960;-69
2022/03/11 06:00:43;;;;;;;33.30;20.50;;;;;;;6.25;40.27;97663.94;5032878;28;20185;-69
2022/03/11 06:03:08;;;;;;;30.90;19.03;;;;;;;6.24;40.13;97667.50;5031877;28;20295;-68
2022/03/11 06:05:33;;;;;;;29.00;17.73;;;;;;;6.15;40.33;97665.59;5032049;28;20270;-68
2022/03/11 06:08:02;;;;;;;26.07;17.47;;;;;;;6.17;39.53;97668.91;5031563;28;20186;-67
2022/03/11 06:10:27;;;;;;;27.60;17.60;;;;;;;6.11;39.77;97669.34;5031851;28;20215;-67
2022/03/11 06:12:52;;;;;;;29.00;19.27;;;;;;;6.18;40.07;97675.75;5031821;28;20441;-67
2022/03/11 06:15:18;;;;;;;30.30;18.33;;;;;;;6.39;39.82;97675.13;5031413;28;20191;-67
2022/03/11 06:17:44;;;;;;;32.40;17.70;;;;;;;6.81;38.29;97674.59;5031673;28;20644;-67
2022/03/11 06:20:11;;;;;;;37.73;19.47;;;;;;;7.09;38.09;97675.91;5031240;28;20262;-68
2022/03/11 06:22:37;;;;;;;27.73;18.23;;;;;;;7.14;38.17;97678.16;5021287;28;20225;-67
2022/03/11 06:25:05;;;;;;;23.17;14.57;;;;;;;7.21;36.72;97672.34;5033693;28;20431;-68
2022/03/11 06:27:31;;;;;;;24.20;14.90;;;;;;;7.45;35.82;97671.38;5031462;28;20193;-67
2022/03/11 06:29:56;;;;;;;23.37;15.30;;;;;;;7.50;35.94;97677.06;5031459;28;20416;-68
2022/03/11 06:32:22;;;;;;;27.50;14.63;;;;;;;7.31;34.93;97671.66;5031168;28;20202;-68
2022/03/11 06:34:50;;;;;;;28.23;13.70;;;;;;;7.37;34.97;97681.59;5031626;28;20214;-67
2022/03/11 06:37:16;;;;;;;27.30;14.67;;;;;;;7.44;34.66;97677.53;5031390;28;20597;-68
2022/03/11 06:39:41;;;;;;;25.80;14.13;;;;;;;7.55;34.63;97675.88;5032572;28;20431;-68
2022/03/11 06:42:07;;;;;;;22.27;13.70;;;;;;;7.60;34.04;97679.78;5032083;28;20248;-68
2022/03/11 06:44:32;;;;;;;22.90;12.23;;;;;;;7.52;33.46;97677.78;5023095;28;20194;-68
2022/03/11 06:46:58;;;;;;;20.70;13.40;;;;;;;7.47;34.03;97674.69;5031412;28;20193;-68
2022/03/11 06:49:24;;;;;;;25.73;13.43;;;;;;;7.65;33.46;97668.97;5028808;28;20187;-67
2022/03/11 06:51:49;;;;;;;18.17;12.60;;;;;;;7.74;32.71;97668.22;5030317;28;20208;-67
2022/03/11 06:54:15;;;;;;;19.80;12.17;;;;;;;7.82;32.49;97671.03;5033466;28;20204;-68
2022/03/11 06:56:40;;;;;;;18.57;12.63;;;;;;;7.83;32.38;97672.69;5031106;28;20180;-67
2022/03/11 06:59:06;;;;;;;18.17;12.13;;;;;;;7.95;31.95;97668.28;5031280;28;20181;-67
2022/03/11 07:01:31;;;;;;;24.67;12.70;;;;;;;7.87;31.99;97667.25;5028881;28;20680;-67
2022/03/11 07:03:57;;;;;;;19.53;12.47;;;;;;;7.92;32.75;97670.31;5030981;28;20204;-67
2022/03/11 07:06:23;;;;;;;22.37;11.60;;;;;;;7.99;31.99;97672.31;5010986;28;20689;-67
2022/03/11 07:08:48;;;;;;;24.13;11.17;;;;;;;8.13;31.95;97679.00;5025414;28;20200;-68
2022/03/11 07:11:14;;;;;;;16.73;11.90;;;;;;;8.12;31.87;97676.53;5030953;28;20222;-68
2022/03/11 07:13:39;;;;;;;16.97;11.13;;;;;;;8.29;32.09;97678.56;5031383;28;20181;-67
2022/03/11 07:16:05;;;;;;;18.97;11.67;;;;;;;8.52;31.42;97678.47;5031139;28;20258;-69
2022/03/11 07:18:31;;;;;;;21.43;12.47;;;;;;;8.55;31.37;97677.41;5013459;28;20181;-68
2022/03/11 07:20:56;;;;;;;20.40;12.13;;;;;;;8.64;30.97;97676.63;5031068;28;20202;-65
2022/03/11 07:23:22;;;;;;;26.53;11.40;;;;;;;8.41;30.89;97671.53;5030551;28;20203;-68
2022/03/11 07:25:48;;;;;;;26.40;12.10;;;;;;;8.43;30.92;97674.00;5030488;28;20199;-68
2022/03/11 07:28:13;;;;;;;18.30;11.80;;;;;;;8.46;31.64;97684.19;5030966;28;20508;-67
2022/03/11 07:30:39;;;;;;;19.30;11.37;;;;;;;8.55;30.74;97682.63;5030436;28;20511;-68
2022/03/11 07:33:06;;;;;;;23.80;11.70;;;;;;;8.46;30.58;97687.63;5023608;28;20206;-69
2022/03/11 07:35:32;;;;;;;18.37;10.63;;;;;;;8.38;31.05;97690.06;5030745;28;20735;-69
2022/03/11 07:37:57;;;;;;;17.70;11.80;;;;;;;8.40;31.55;97693.38;5030882;28;20547;-69
2022/03/11 07:40:23;;;;;;;19.80;12.60;;;;;;;8.11;31.52;97698.38;5031469;28;20871;-68
2022/03/11 07:42:48;;;;;;;19.70;11.00;;;;;;;8.03;31.28;97693.78;5035048;28;20209;-69
2022/03/11 07:45:14;;;;;;;18.23;12.13;;;;;;;7.74;31.74;97691.72;5030022;28;20194;-69
2022/03/11 07:47:41;;;;;;;19.90;12.60;;;;;;;7.66;32.05;97691.50;5030750;28;20535;-69
2022/03/11 07:50:08;;;;;;;25.90;12.10;;;;;;;7.85;32.40;97696.09;5013566;28;20418;-69
2022/03/11 07:52:34;;;;;;;22.43;12.60;;;;;;;7.84;31.96;97692.63;5022969;28;20468;-68
2022/03/11 07:54:59;;;;;;;16.77;11.80;;;;;;;7.69;32.21;97693.84;5030669;28;20424;-71
2022/03/11 07:57:25;;;;;;;21.80;11.77;;;;;;;7.78;32.10;97694.91;5031039;28;20429;-70
2022/03/11 07:59:50;;;;;;;18.63;12.20;;;;;;;7.88;31.99;97690.59;5030223;28;20244;-70
2022/03/11 08:02:16;;;;;;;17.07;11.57;;;;;;;7.82;32.21;97689.31;5029330;28;20290;-70
2022/03/11 08:04:42;;;;;;;18.83;12.47;;;;;;;7.99;32.35;97689.75;5030809;28;20184;-70
2022/03/11 08:07:10;;;;;;;21.83;13.10;;;;;;;7.88;32.23;97695.81;5030805;28;20274;-70
2022/03/11 08:09:36;;;;;;;20.13;11.63;;;;;;;7.58;32.19;97694.72;4997080;28;21068;-70
2022/03/11 08:12:03;;;;;;;18.93;12.27;;;;;;;8.09;32.05;97682.81;5013351;28;20438;-71
2022/03/11 08:14:28;;;;;;;23.90;12.00;;;;;;;8.60;32.33;97685.69;5030619;28;20211;-71
2022/03/11 08:16:54;;;;;;;19.13;11.87;;;;;;;8.99;31.54;97678.06;5030600;28;20421;-71
2022/03/11 08:19:19;;;;;;;21.50;13.10;;;;;;;9.24;31.35;97673.34;5034337;28;20419;-70
2022/03/11 08:21:44;;;;;;;22.20;13.10;;;;;;;9.65;31.31;97678.53;5033591;28;20209;-70
2022/03/11 08:24:10;;;;;;;25.20;15.60;;;;;;;9.67;30.42;97680.06;5030371;28;20236;-70
2022/03/11 08:26:35;;;;;;;22.43;13.80;;;;;;;9.85;30.66;97671.53;5030180;28;20190;-70
2022/03/11 08:29:01;;;;;;;18.87;13.70;;;;;;;10.17;29.72;97674.84;5030652;28;20219;-70
2022/03/11 08:31:26;;;;;;;24.13;14.10;;;;;;;10.11;30.37;97671.84;5029589;28;20217;-69
2022/03/11 08:33:52;;;;;;;21.50;14.67;;;;;;;10.44;29.94;97668.97;5030583;28;20283;-69
2022/03/11 08:36:17;;;;;;;36.70;15.50;;;;;;;10.48;29.76;97662.47;5027148;28;20207;-69
2022/03/11 08:38:43;;;;;;;20.77;14.40;;;;;;;10.95;29.98;97680.00;5029236;28;20311;-69
2022/03/11 08:41:09;;;;;;;22.00;14.30;;;;;;;11.07;29.86;97678.06;5029997;28;20612;-69
2022/03/11 08:43:38;;;;;;;23.00;14.40;;;;;;;11.52;29.04;97666.78;5027384;28;20204;-70
2022/03/11 08:46:04;;;;;;;24.93;14.50;;;;;;;11.67;28.15;97669.72;5011198;28;20427;-71
2022/03/11 08:48:30;;;;;;;25.90;14.43;;;;;;;12.01;27.92;97667.47;5031906;28;20971;-69
2022/03/11 08:50:55;;;;;;;35.37;15.20;;;;;;;12.32;27.67;97669.69;5012419;28;20426;-70
2022/03/11 08:53:21;;;;;;;19.47;14.57;;;;;;;12.49;27.42;97668.84;5029684;28;20588;-70
2022/03/11 08:55:46;;;;;;;21.40;14.10;;;;;;;12.65;27.16;97660.25;5015646;28;20188;-69
2022/03/11 08:58:13;;;;;;;30.87;15.07;;;;;;;12.80;26.84;97654.44;5032821;28;20274;-69
2022/03/11 09:00:40;;;;;;;21.53;15.20;;;;;;;12.98;26.87;97651.72;5033058;28;20184;-69
2022/03/11 09:03:05;;;;;;;21.40;15.10;;;;;;;13.27;26.99;97651.34;5033384;28;20544;-69
2022/03/11 09:05:31;;;;;;;20.10;15.17;;;;;;;13.34;26.64;97646.28;5025095;28;20528;-70
2022/03/11 09:07:58;;;;;;;29.40;16.03;;;;;;;13.41;26.13;97646.50;5033374;28;20187;-69
2022/03/11 09:10:23;;;;;;;23.20;15.30;;;;;;;13.73;26.65;97644.97;5032828;28;20438;-70
2022/03/11 09:12:49;;;;;;;22.03;14.67;;;;;;;14.16;25.67;97635.09;5033227;28;20989;-70
2022/03/11 09:15:15;;;;;;;21.33;14.43;;;;;;;14.30;25.26;97641.56;5032479;28;20258;-70
2022/03/11 09:17:40;;;;;;;21.20;14.67;;;;;;;13.67;25.60;97641.97;5033135;28;20201;-70
2022/03/11 09:20:06;;;;;;;25.97;15.03;;;;;;;13.75;25.55;97637.69;5033576;28;20222;-71
2022/03/11 09:22:33;;;;;;;18.63;13.77;;;;;;;13.69;25.51;97641.00;5033054;28;20462;-69
2022/03/11 09:25:00;;;;;;;22.70;13.97;;;;;;;13.62;25.64;97632.91;5033155;28;20226;-71
2022/03/11 09:27:27;;;;;;;21.00;13.43;;;;;;;14.14;25.26;97618.63;5032864;28;20441;-70
2022/03/11 09:29:52;;;;;;;19.93;13.10;;;;;;;14.27;24.71;97620.78;5032320;28;20478;-70
2022/03/11 09:32:18;;;;;;;22.47;14.10;;;;;;;14.46;24.71;97614.34;5032812;28;20532;-69
2022/03/11 09:34:43;;;;;;;19.60;13.47;;;;;;;14.63;24.59;97616.94;5014912;28;20276;-70
2022/03/11 09:37:10;;;;;;;20.27;13.77;;;;;;;15.03;24.78;97615.22;5015115;28;20191;-70
2022/03/11 09:39:35;;;;;;;20.00;13.17;;;;;;;15.31;23.63;97622.69;5015484;28;20180;-69
2022/03/11 09:42:04;;;;;;;18.47;12.20;;;;;;;15.32;23.27;97621.69;5035211;28;20429;-69
2022/03/11 09:44:30;;;;;;;20.30;12.63;;;;;;;15.00;23.56;97623.47;5032392;28;20201;-70
2022/03/11 09:46:55;;;;;;;20.10;12.60;;;;;;;15.15;22.94;97613.03;5029899;28;21145;-69
2022/03/11 09:49:21;;;;;;;16.97;12.57;;;;;;;14.87;23.38;97616.91;5014532;28;20199;-70
2022/03/11 09:51:47;;;;;;;19.73;12.00;;;;;;;14.98;23.09;97612.28;5032756;28;20218;-69
2022/03/11 09:54:13;;;;;;;16.47;11.43;;;;;;;15.26;22.98;97594.16;5031894;28;20817;-69
2022/03/11 09:56:40;;;;;;;22.87;11.30;;;;;;;15.16;22.70;97602.28;5032016;28;20504;-69
2022/03/11 09:59:06;;;;;;;15.50;11.37;;;;;;;15.60;22.67;97595.63;5031383;28;20191;-68
2022/03/11 10:01:33;;;;;;;20.80;10.90;;;;;;;15.72;22.31;97598.69;5027153;28;20446;-69
2022/03/11 10:03:58;;;;;;;17.10;10.47;;;;;;;15.84;22.59;97595.63;5032186;28;20450;-69
2022/03/11 10:06:40;;;;;;;18.07;11.90;;;;;;;16.13;22.36;97595.75;5030416;28;20472;-69
2022/03/11 10:09:07;;;;;;;21.03;10.80;;;;;;;15.94;21.83;97598.88;5031787;28;20197;-69
2022/03/11 10:11:35;;;;;;;19.17;11.40;;;;;;;15.88;21.79;97597.78;5005841;28;20442;-69
2022/03/11 10:14:08;;;;;;;17.97;11.40;;;;;;;16.13;21.95;97601.03;5032190;28;20415;-68
2022/03/11 10:16:34;;;;;;;22.63;11.10;;;;;;;16.25;21.31;97604.09;5024124;28;20432;-68
2022/03/11 10:19:01;;;;;;;22.43;11.03;;;;;;;16.17;21.73;97605.97;5042681;28;20774;-69
2022/03/11 10:21:40;;;;;;;15.00;10.13;;;;;;;16.20;21.57;97600.34;5031837;28;20474;-69
2022/03/11 10:24:08;;;;;;;14.43;10.57;;;;;;;16.46;21.73;97604.41;5031254;28;20583;-70
2022/03/11 10:26:41;;;;;;;14.70;10.70;;;;;;;16.87;22.08;97599.50;5019702;28;20432;-70
2022/03/11 10:29:12;;;;;;;17.37;10.30;;;;;;;17.50;21.19;97595.63;5027654;28;20848;-69
2022/03/11 10:31:40;;;;;;;14.97;10.27;;;;;;;17.79;20.42;97593.84;5030465;28;20484;-69
2022/03/11 10:34:12;;;;;;;19.17;10.60;;;;;;;17.61;20.00;97591.63;5031531;28;20426;-69
2022/03/11 10:36:46;;;;;;;15.20;10.43;;;;;;;17.75;20.11;97593.41;5024183;28;20423;-69
2022/03/11 10:39:14;;;;;;;16.47;11.40;;;;;;;18.02;19.86;97587.59;5031562;28;20419;-69
2022/03/11 10:41:39;;;;;;;13.77;9.97;;;;;;;18.42;20.39;97593.19;5034433;28;20477;-69
2022/03/11 10:44:09;;;;;;;16.90;10.70;;;;;;;18.64;19.66;97586.00;5030415;28;20942;-70
2022/03/11 10:46:35;;;;;;;15.83;11.60;;;;;;;18.61;19.65;97586.38;5031339;28;20184;-69
2022/03/11 10:49:01;;;;;;;14.40;10.50;;;;;;;18.31;19.61;97578.66;5031128;28;20431;-69
2022/03/11 10:51:35;;;;;;;15.63;10.53;;;;;;;18.56;19.90;97588.81;5031547;28;20466;-69
2022/03/11 10:54:03;;;;;;;13.63;10.30;;;;;;;18.10;19.74;97584.78;5031619;28;20421;-70
2022/03/11 10:56:34;;;;;;;19.53;9.97;;;;;;;18.37;19.76;97582.34;5030885;28;20508;-70
2022/03/11 10:59:27;;;;;;;19.50;10.33;;;;;;;18.46;19.79;97583.84;5030461;28;20423;-70
2022/03/11 11:01:57;;;;;;;13.83;10.37;;;;;;;18.64;19.88;97579.88;5029715;28;20462;-70
2022/03/11 11:04:24;;;;;;;14.00;10.43;;;;;;;18.84;19.54;97575.50;5030644;28;20462;-69
2022/03/11 11:06:50;;;;;;;18.40;10.60;;;;;;;18.88;19.14;97571.44;5031108;28;20427;-68
2022/03/11 11:09:17;;;;;;;17.20;10.57;;;;;;;19.14;19.26;97561.97;5030925;28;20784;-70
2022/03/11 11:11:43;;;;;;;20.47;10.73;;;;;;;19.49;19.41;97567.19;5031266;28;20202;-70
2022/03/11 11:14:09;;;;;;;17.70;10.70;;;;;;;19.67;18.81;97557.81;5030493;28;20427;-69
2022/03/11 11:16:40;;;;;;;14.67;10.57;;;;;;;19.91;19.44;97559.09;5030509;28;20433;-69
2022/03/11 11:19:09;;;;;;;15.37;10.30;;;;;;;20.09;19.03;97555.84;5030839;28;20467;-69